createdAt,value
2022-11-30T00:02:55.068Z,57.73
2022-11-30T00:08:02.527Z,53.47
2022-11-30T00:13:08.722Z,51.87
2022-11-30T00:18:14.121Z,51.93
2022-11-30T00:23:19.508Z,55.30
2022-11-30T00:28:24.927Z,52.87
2022-11-30T00:33:32.236Z,49.13
2022-11-30T00:38:37.652Z,50.43
2022-11-30T00:43:43.318Z,55.70
2022-11-30T00:48:48.815Z,53.67
2022-11-30T00:53:54.218Z,51.27
2022-11-30T00:58:59.782Z,53.00
2022-11-30T01:04:07.273Z,50.27
2022-11-30T01:09:12.668Z,51.50
2022-11-30T01:14:18.066Z,49.47
2022-11-30T01:19:23.555Z,48.23
2022-11-30T01:24:28.961Z,50.97
2022-11-30T01:29:34.362Z,55.60
2022-11-30T01:34:39.820Z,49.70
2022-11-30T01:39:46.256Z,50.20
2022-11-30T01:45:00.708Z,48.37
2022-11-30T01:50:09.207Z,56.73
2022-11-30T01:55:17.651Z,48.60
2022-11-30T02:00:23.870Z,50.30
2022-11-30T02:05:29.991Z,51.67
2022-11-30T02:10:38.517Z,45.23
2022-11-30T02:16:18.825Z,46.27
2022-11-30T02:21:36.248Z,49.93
2022-11-30T02:26:47.483Z,45.60
2022-11-30T02:32:07.906Z,48.53
2022-11-30T02:37:16.413Z,44.47
2022-11-30T02:42:22.025Z,54.03
2022-11-30T02:47:45.499Z,46.17
2022-11-30T02:52:53.017Z,53.60
2022-11-30T02:57:58.768Z,46.53
2022-11-30T03:03:04.199Z,51.03
2022-11-30T03:08:09.695Z,49.33
2022-11-30T03:13:15.076Z,47.27
2022-11-30T03:18:20.463Z,53.60
2022-11-30T03:23:26.040Z,46.70
2022-11-30T03:28:31.452Z,48.50
2022-11-30T03:33:36.853Z,50.37
2022-11-30T03:38:42.309Z,51.07
2022-11-30T03:43:48.703Z,53.83
2022-11-30T03:48:54.457Z,53.87
2022-11-30T03:53:59.902Z,54.17
2022-11-30T03:59:05.475Z,51.77
2022-11-30T04:04:12.507Z,54.13
2022-11-30T04:09:17.901Z,42.10
2022-11-30T04:14:23.294Z,49.33
2022-11-30T04:19:28.688Z,48.60
2022-11-30T04:24:34.071Z,52.63
2022-11-30T04:29:39.540Z,49.33
2022-11-30T04:34:45.364Z,52.20
2022-11-30T04:39:51.196Z,50.37
2022-11-30T04:44:56.576Z,54.00
2022-11-30T04:50:01.964Z,47.57
2022-11-30T04:55:08.226Z,52.53
2022-11-30T05:00:15.409Z,52.27
2022-11-30T05:05:21.267Z,51.57
2022-11-30T05:10:28.195Z,52.37
2022-11-30T05:15:33.855Z,52.47
2022-11-30T05:20:39.258Z,51.30
2022-11-30T05:25:45.188Z,48.70
2022-11-30T05:30:50.671Z,56.90
2022-11-30T05:35:56.137Z,47.97
2022-11-30T05:41:04.576Z,51.30
2022-11-30T05:46:11.771Z,52.37
2022-11-30T05:51:18.898Z,55.80
2022-11-30T05:56:24.360Z,52.90
2022-11-30T06:01:30.522Z,53.60
2022-11-30T06:06:35.907Z,54.07
2022-11-30T06:11:41.666Z,56.53
2022-11-30T06:16:47.435Z,54.27
2022-11-30T06:21:52.852Z,51.60
2022-11-30T06:26:58.317Z,46.40
2022-11-30T06:32:04.045Z,56.17
2022-11-30T06:37:09.455Z,55.27
2022-11-30T06:42:14.848Z,58.00
2022-11-30T06:47:20.248Z,58.70
2022-11-30T06:52:25.906Z,55.40
2022-11-30T06:57:31.957Z,52.33
2022-11-30T07:02:38.131Z,60.00
2022-11-30T07:07:43.589Z,57.27
2022-11-30T07:12:48.998Z,56.67
2022-11-30T07:17:54.405Z,51.10
2022-11-30T07:23:01.443Z,57.63
2022-11-30T07:28:08.708Z,58.63
2022-11-30T07:33:14.111Z,65.80
2022-11-30T07:38:19.574Z,53.90
2022-11-30T07:43:24.957Z,56.87
2022-11-30T07:48:30.349Z,53.20
2022-11-30T07:53:35.965Z,57.90
2022-11-30T07:58:41.996Z,64.60
2022-11-30T08:03:48.099Z,62.27
2022-11-30T08:08:55.190Z,60.93
2022-11-30T08:14:00.864Z,63.50
2022-11-30T08:19:06.760Z,54.53
2022-11-30T08:24:16.260Z,60.77
2022-11-30T08:29:21.687Z,59.20
2022-11-30T08:34:27.151Z,58.20
2022-11-30T08:39:34.258Z,55.80
2022-11-30T08:44:39.802Z,62.20
2022-11-30T08:49:45.311Z,63.43
2022-11-30T08:54:52.765Z,56.53
2022-11-30T08:59:58.674Z,63.77
2022-11-30T09:05:04.212Z,60.20
2022-11-30T09:10:10.407Z,56.87
2022-11-30T09:15:15.875Z,60.73
2022-11-30T09:20:21.437Z,59.23
2022-11-30T09:25:26.833Z,53.37
2022-11-30T09:30:32.348Z,61.67
2022-11-30T09:35:37.790Z,54.00
2022-11-30T09:40:43.621Z,58.43
2022-11-30T09:45:52.101Z,55.27
2022-11-30T09:51:00.107Z,60.53
2022-11-30T09:56:08.584Z,61.63
2022-11-30T10:01:19.587Z,61.73
2022-11-30T10:06:33.707Z,61.33
2022-11-30T10:11:51.130Z,62.47
2022-11-30T10:17:05.373Z,62.00
2022-11-30T10:22:41.128Z,61.50
2022-11-30T10:27:54.602Z,59.23
2022-11-30T10:33:04.816Z,59.27
2022-11-30T10:38:16.495Z,65.20
2022-11-30T10:43:40.038Z,58.60
2022-11-30T10:48:48.628Z,59.80
2022-11-30T10:53:54.193Z,56.67
2022-11-30T10:59:11.758Z,58.47
2022-11-30T11:04:27.626Z,57.80
2022-11-30T11:09:42.354Z,53.03
2022-11-30T11:14:48.182Z,51.80
2022-11-30T11:19:53.589Z,52.83
2022-11-30T11:25:18.736Z,51.53
2022-11-30T11:30:30.225Z,51.97
2022-11-30T11:35:53.129Z,51.33
2022-11-30T11:41:01.693Z,44.57
2022-11-30T11:46:14.541Z,58.33
2022-11-30T11:51:22.989Z,47.80
2022-11-30T11:56:34.704Z,51.30
2022-11-30T12:02:16.793Z,46.93
2022-11-30T12:07:27.952Z,47.50
2022-11-30T12:12:34.173Z,45.60
2022-11-30T12:17:54.725Z,49.03
2022-11-30T12:23:15.271Z,52.57
2022-11-30T12:28:44.826Z,47.80
2022-11-30T12:34:10.200Z,49.43
2022-11-30T12:39:38.252Z,48.03
2022-11-30T12:45:06.727Z,54.17
2022-11-30T12:50:24.258Z,48.83
2022-11-30T12:55:47.955Z,52.67
2022-11-30T13:01:02.967Z,49.50
2022-11-30T13:06:17.335Z,53.00
2022-11-30T13:11:35.045Z,46.10
2022-11-30T13:16:42.976Z,50.70
2022-11-30T13:21:51.410Z,43.37
2022-11-30T13:27:08.720Z,50.93
2022-11-30T13:37:27.321Z,55.57
2022-11-30T13:42:47.362Z,54.00
2022-11-30T13:47:52.665Z,53.67
2022-11-30T13:53:28.642Z,49.27
2022-11-30T13:58:34.655Z,56.47
2022-11-30T14:03:40.181Z,54.70
2022-11-30T14:08:45.564Z,56.23
2022-11-30T14:13:51.263Z,57.20
2022-11-30T14:18:58.023Z,50.73
2022-11-30T14:24:09.332Z,53.37
2022-11-30T14:29:24.495Z,57.97
2022-11-30T14:34:51.082Z,60.90
2022-11-30T14:39:59.513Z,57.23
2022-11-30T14:45:06.932Z,64.87
2022-11-30T14:50:15.466Z,59.83
2022-11-30T14:55:46.596Z,66.73
2022-11-30T15:00:52.710Z,71.17
2022-11-30T15:06:04.256Z,66.93
2022-11-30T15:11:14.998Z,62.00
2022-11-30T15:16:31.394Z,70.23
2022-11-30T15:21:36.841Z,68.67
2022-11-30T15:26:51.518Z,65.57
2022-11-30T15:32:00.364Z,69.10
2022-11-30T15:37:06.283Z,56.40
2022-11-30T15:42:14.746Z,64.57
2022-11-30T15:47:28.620Z,61.73
2022-11-30T15:52:35.520Z,65.23
2022-11-30T15:57:58.405Z,62.73
2022-11-30T16:03:14.275Z,63.37
2022-11-30T16:08:20.056Z,56.67
2022-11-30T16:13:29.114Z,62.17
2022-11-30T16:18:34.780Z,51.33
2022-11-30T16:23:40.319Z,63.73
2022-11-30T16:28:45.803Z,60.50
2022-11-30T16:33:51.800Z,56.33
2022-11-30T16:38:58.001Z,58.90
2022-11-30T16:44:03.399Z,58.07
2022-11-30T16:49:08.888Z,60.40
2022-11-30T16:54:16.356Z,60.85
2022-11-30T16:59:22.169Z,51.23
2022-11-30T17:04:32.830Z,55.43
2022-11-30T17:09:39.274Z,58.53
2022-11-30T17:14:44.883Z,54.83
2022-11-30T17:19:50.585Z,52.77
2022-11-30T17:24:56.708Z,60.73
2022-11-30T17:30:02.189Z,59.60
2022-11-30T17:35:09.014Z,61.83
2022-11-30T17:40:18.605Z,55.07
2022-11-30T17:45:24.386Z,56.33
2022-11-30T17:50:29.866Z,53.60
2022-11-30T17:55:35.591Z,52.57
2022-11-30T18:00:40.988Z,50.17
2022-11-30T18:05:46.436Z,55.07
2022-11-30T18:10:51.834Z,57.30
2022-11-30T18:16:09.570Z,63.37
2022-11-30T18:21:18.510Z,57.27
2022-11-30T18:26:26.005Z,55.00
2022-11-30T18:31:32.714Z,52.63
2022-11-30T18:36:38.155Z,53.47
2022-11-30T18:41:43.559Z,61.47
2022-11-30T18:46:49.014Z,58.23
2022-11-30T18:51:55.254Z,56.93
2022-11-30T18:57:01.739Z,61.93
2022-11-30T19:02:09.638Z,54.87
2022-11-30T19:07:15.547Z,53.03
2022-11-30T19:12:21.099Z,53.63
2022-11-30T19:17:26.781Z,59.30
2022-11-30T19:22:32.968Z,61.87
2022-11-30T19:27:39.145Z,58.33
2022-11-30T19:32:44.606Z,58.73
2022-11-30T19:37:51.717Z,66.10
2022-11-30T19:42:57.862Z,54.53
2022-11-30T19:48:03.259Z,53.33
2022-11-30T19:53:08.904Z,53.20
2022-11-30T19:58:14.986Z,61.17
2022-11-30T20:03:20.884Z,62.10
2022-11-30T20:08:26.309Z,62.77
2022-11-30T20:13:32.080Z,64.23
2022-11-30T20:18:41.409Z,62.57
2022-11-30T20:23:47.261Z,64.20
2022-11-30T20:28:54.675Z,63.47
2022-11-30T20:34:00.514Z,61.00
2022-11-30T20:39:10.360Z,60.03
2022-11-30T20:44:16.558Z,64.63
2022-11-30T20:49:22.130Z,60.63
2022-11-30T20:54:29.236Z,62.80
2022-11-30T20:59:34.690Z,59.67
2022-11-30T21:04:40.326Z,62.83
2022-11-30T21:09:45.728Z,57.27
2022-11-30T21:14:51.172Z,56.67
2022-11-30T21:19:56.971Z,54.27
2022-11-30T21:25:02.438Z,57.10
2022-11-30T21:30:08.825Z,54.87
2022-11-30T21:35:14.255Z,52.10
2022-11-30T21:40:19.859Z,52.00
2022-11-30T21:45:25.417Z,50.57
2022-11-30T21:50:30.920Z,51.07
2022-11-30T21:55:38.034Z,47.07
2022-11-30T22:00:43.441Z,52.10
2022-11-30T22:06:03.447Z,58.80
2022-11-30T22:11:14.833Z,53.03
2022-11-30T22:16:21.778Z,61.03
2022-11-30T22:21:30.240Z,60.53
2022-11-30T22:26:38.674Z,53.30
2022-11-30T22:31:47.023Z,53.57
2022-11-30T22:36:52.554Z,52.23
2022-11-30T22:41:57.947Z,53.60
2022-11-30T22:47:03.427Z,54.90
2022-11-30T22:52:09.021Z,49.30
2022-11-30T22:57:14.417Z,53.67
2022-11-30T23:02:19.857Z,58.40
2022-11-30T23:07:30.464Z,51.77
2022-11-30T23:12:57.814Z,51.43
2022-11-30T23:17:39.449Z,53.40
2022-11-30T23:22:44.845Z,50.90
2022-11-30T23:27:50.237Z,49.70
2022-11-30T23:32:57.431Z,54.40
2022-11-30T23:38:02.889Z,47.43
2022-11-30T23:43:08.290Z,52.77
2022-11-30T23:48:13.922Z,49.57
2022-11-30T23:53:19.484Z,48.90
2022-11-30T23:58:25.886Z,46.57
